Time;durP1;ratioP1;P1;durP2;ratioP2;P2;SDS_P1;SDS_P2;PMS_P1;PMS_P2;Temp;Humidity;BMP_temperature;BMP_pressure;BME280_temperature;BME280_humidity;BME280_pressure;Samples;Min_cycle;Max_cycle;Signal;HPM_P1;HPM_P2
2022/09/05 00:01:46;;;;;;;6.30;5.80;;;;;;;15.76;87.95;100641.03;10375510;28;20050;-72
2022/09/05 00:06:58;;;;;;;6.75;6.07;;;;;;;15.87;87.47;100635.25;10355657;28;20060;-73
2022/09/05 00:12:02;;;;;;;7.22;6.80;;;;;;;15.88;87.24;100637.81;10372755;28;20045;-73
2022/09/05 00:17:18;;;;;;;6.75;6.25;;;;;;;15.53;88.36;100625.22;10372033;28;20064;-73
2022/09/05 00:22:40;;;;;;;7.30;6.70;;;;;;;15.76;88.26;100632.19;10376560;28;20041;-72
2022/09/05 00:28:14;;;;;;;6.72;6.22;;;;;;;15.45;89.13;100625.56;10355762;28;20045;-72
2022/09/05 00:33:37;;;;;;;7.00;6.45;;;;;;;15.33;90.46;100624.28;10373747;28;20456;-72
2022/09/05 00:38:50;;;;;;;7.38;6.93;;;;;;;15.25;91.20;100618.44;10355268;28;20422;-74
2022/09/05 00:43:52;;;;;;;7.00;6.60;;;;;;;15.22;91.84;100623.00;10357896;28;20483;-74
2022/09/05 00:49:10;;;;;;;6.18;5.68;;;;;;;15.25;90.88;100630.81;10372434;28;20065;-74
2022/09/05 00:54:23;;;;;;;6.55;6.05;;;;;;;15.27;90.29;100627.19;10501818;22;20151;-69
2022/09/05 01:00:06;;;;;;;6.70;6.20;;;;;;;15.53;90.11;100633.16;10545572;28;20036;-71
2022/09/05 01:05:30;;;;;;;;;;;;;;;15.31;91.05;100627.91;10531582;28;20412;-70
2022/09/05 01:10:49;;;;;;;7.13;6.63;;;;;;;15.34;91.46;100630.44;10531161;28;19958;-70
2022/09/05 01:16:11;;;;;;;9.02;7.53;;;;;;;15.52;90.88;100632.31;10547730;28;20040;-70
2022/09/05 01:21:48;;;;;;;7.28;6.78;;;;;;;15.34;92.04;100630.44;10548454;28;20078;-70
2022/09/05 01:27:19;;;;;;;7.80;7.30;;;;;;;15.48;91.12;100635.16;10529389;28;20386;-71
2022/09/05 01:32:53;;;;;;;8.00;7.28;;;;;;;15.23;93.03;100635.31;10531148;28;20066;-70
2022/09/05 01:38:27;;;;;;;7.65;7.05;;;;;;;14.98;94.72;100632.81;10547768;28;20451;-70
2022/09/05 01:43:56;;;;;;;7.25;6.78;;;;;;;15.09;94.54;100639.38;10547415;28;20050;-70
2022/09/05 01:49:13;;;;;;;8.30;7.78;;;;;;;14.99;94.72;100635.41;10547236;28;20054;-70
2022/09/05 01:54:31;;;;;;;9.10;7.60;;;;;;;14.86;95.58;100636.81;10546282;28;20043;-70
2022/09/05 01:59:48;;;;;;;7.43;6.93;;;;;;;14.82;94.76;100643.16;10546776;28;20131;-70
2022/09/05 02:05:12;;;;;;;7.32;6.93;;;;;;;14.80;95.59;100645.00;10547485;28;20040;-70
2022/09/05 02:10:38;;;;;;;7.32;6.82;;;;;;;14.91;95.57;100644.56;10545485;28;20052;-70
2022/09/05 02:15:45;;;;;;;8.27;7.68;;;;;;;15.00;95.01;100645.06;10546118;28;20041;-70
2022/09/05 02:21:03;;;;;;;7.95;7.35;;;;;;;15.01;94.91;100638.88;10545686;28;20078;-70
2022/09/05 02:26:24;;;;;;;7.13;6.72;;;;;;;15.12;94.63;100638.41;10545928;28;20040;-70
2022/09/05 02:31:38;;;;;;;7.10;6.47;;;;;;;15.14;93.98;100642.72;10544368;28;20401;-70
2022/09/05 02:36:48;;;;;;;7.03;6.53;;;;;;;15.17;93.59;100640.88;10546130;28;20040;-70
2022/09/05 02:41:59;;;;;;;7.78;7.20;;;;;;;15.17;93.40;100635.56;10546178;28;20040;-70
2022/09/05 02:47:49;;;;;;;7.70;7.18;;;;;;;15.09;93.43;100638.53;10546181;28;20047;-70
2022/09/05 02:52:52;;;;;;;8.55;7.95;;;;;;;15.14;93.54;100640.09;10544369;28;20115;-70
2022/09/05 02:58:26;;;;;;;8.20;7.65;;;;;;;15.27;93.75;100644.84;10543384;28;20051;-70
2022/09/05 03:03:41;;;;;;;8.80;8.20;;;;;;;15.37;93.10;100640.91;10543560;28;20062;-70
2022/09/05 03:09:01;;;;;;;7.60;7.20;;;;;;;15.18;94.65;100634.63;10536156;28;20086;-70
2022/09/05 03:14:42;;;;;;;9.32;8.73;;;;;;;15.04;95.70;100633.41;10543007;28;20040;-70
2022/09/05 03:20:14;;;;;;;9.40;8.80;;;;;;;14.96;96.06;100627.56;10523721;28;20493;-70
2022/09/05 03:25:33;;;;;;;10.13;9.52;;;;;;;14.79;97.37;100628.28;10543246;28;20497;-70
2022/09/05 03:30:55;;;;;;;9.27;8.65;;;;;;;14.70;97.49;100623.34;10543963;28;20047;-70
2022/09/05 03:36:20;;;;;;;10.32;9.52;;;;;;;14.60;97.73;100635.19;10525055;28;20040;-70
2022/09/05 03:41:40;;;;;;;9.73;9.13;;;;;;;14.70;97.84;100640.97;10543783;28;20040;-70
2022/09/05 03:46:54;;;;;;;10.38;9.77;;;;;;;14.67;97.57;100641.97;10543823;28;20060;-71
2022/09/05 03:52:40;;;;;;;10.07;9.32;;;;;;;14.45;97.72;100639.25;10542359;28;20047;-70
2022/09/05 03:58:33;;;;;;;9.32;8.60;;;;;;;14.47;97.85;100639.19;10542013;28;20451;-70
2022/09/05 04:04:04;;;;;;;10.50;9.70;;;;;;;14.56;97.86;100638.88;10542032;28;20048;-70
2022/09/05 04:09:52;;;;;;;10.27;9.65;;;;;;;14.53;98.55;100646.94;10543617;28;20044;-70
2022/09/05 04:15:16;;;;;;;10.90;10.20;;;;;;;14.41;98.24;100645.59;10542774;28;20055;-70
2022/09/05 04:20:40;;;;;;;10.20;9.32;;;;;;;14.34;97.50;100642.31;10524861;28;20047;-70
2022/09/05 04:26:03;;;;;;;10.50;9.73;;;;;;;14.42;97.76;100649.94;10542738;28;20570;-69
2022/09/05 04:31:45;;;;;;;10.73;9.77;;;;;;;14.46;97.86;100640.97;10527337;28;20374;-69
2022/09/05 04:37:02;;;;;;;10.68;9.80;;;;;;;14.38;98.43;100645.69;10550017;28;20499;-70
2022/09/05 04:42:03;;;;;;;11.20;10.30;;;;;;;14.69;98.11;100655.13;10532392;28;20059;-71
2022/09/05 04:47:14;;;;;;;12.38;11.30;;;;;;;14.74;98.00;100659.34;10530590;28;20077;-70
2022/09/05 04:52:53;;;;;;;10.75;9.80;;;;;;;14.47;99.49;100660.34;10548667;28;20162;-70
2022/09/05 04:58:23;;;;;;;11.52;10.48;;;;;;;14.49;99.97;100666.50;10548124;28;20044;-69
2022/09/05 05:03:44;;;;;;;11.20;10.25;;;;;;;14.49;99.51;100666.50;10548025;28;20040;-69
2022/09/05 05:09:33;;;;;;;11.60;10.80;;;;;;;14.54;99.81;100670.69;10530083;28;20397;-70
2022/09/05 05:14:45;;;;;;;11.95;11.15;;;;;;;14.48;100.00;100668.28;10548253;28;20075;-70
2022/09/05 05:20:46;;;;;;;11.88;11.07;;;;;;;14.50;100.00;100665.56;10542852;28;20055;-70
2022/09/05 05:25:55;;;;;;;12.35;11.50;;;;;;;14.55;100.00;100666.25;10501431;28;20056;-70
2022/09/05 05:31:12;;;;;;;12.45;11.52;;;;;;;14.66;100.00;100672.00;10546721;28;20044;-71
2022/09/05 05:36:24;;;;;;;11.45;10.55;;;;;;;14.83;100.00;100674.88;10547482;28;20067;-70
2022/09/05 05:41:31;;;;;;;11.68;10.77;;;;;;;14.98;100.00;100673.38;10547022;28;20059;-71
2022/09/05 05:46:37;;;;;;;12.60;11.60;;;;;;;15.07;99.85;100688.91;10544801;28;20041;-70
2022/09/05 05:51:54;;;;;;;10.77;9.95;;;;;;;15.28;99.55;100676.59;10527943;28;20072;-69
2022/09/05 05:57:21;;;;;;;11.48;10.73;;;;;;;15.56;98.46;100688.69;10545810;28;20043;-69
2022/09/05 06:02:32;;;;;;;10.95;10.15;;;;;;;16.26;95.80;100687.47;10545381;28;20044;-69
2022/09/05 06:07:46;;;;;;;10.50;9.63;;;;;;;17.45;85.24;100681.81;10544610;28;20115;-69
2022/09/05 06:14:00;;;;;;;9.98;9.02;;;;;;;17.97;79.76;100678.31;10545240;28;20036;-70
2022/09/05 06:19:43;;;;;;;9.75;8.93;;;;;;;18.21;79.78;100678.84;10373562;28;20054;-69
2022/09/05 06:25:42;;;;;;;9.30;8.48;;;;;;;18.32;77.91;100684.44;10374606;28;20054;-70
2022/09/05 06:30:48;;;;;;;9.95;9.18;;;;;;;18.65;77.26;100684.44;10375832;28;20046;-70
2022/09/05 06:36:10;;;;;;;;;;;;;;;18.63;77.31;100687.16;10375408;28;20400;-69
2022/09/05 06:41:27;;;;;;;9.52;8.82;;;;;;;18.52;79.30;100688.72;10374591;28;19972;-70
2022/09/05 06:46:36;;;;;;;10.50;9.68;;;;;;;18.45;80.54;100685.50;10374322;28;20165;-69
2022/09/05 06:52:07;;;;;;;10.25;9.48;;;;;;;18.78;78.45;100689.97;10434720;22;20209;-70
2022/09/05 06:57:53;;;;;;;10.13;9.48;;;;;;;18.99;77.53;100696.78;10523593;28;20044;-69
2022/09/05 07:03:07;;;;;;;10.13;9.25;;;;;;;19.13;77.72;100693.31;10541876;28;20036;-69
2022/09/05 07:08:46;;;;;;;9.85;9.07;;;;;;;19.24;77.10;100690.03;10541215;28;20096;-70
2022/09/05 07:13:54;;;;;;;9.60;8.93;;;;;;;19.31;76.85;100689.59;10543514;28;20047;-70
2022/09/05 07:18:58;;;;;;;8.05;7.55;;;;;;;19.41;76.84;100695.25;10542487;28;20066;-70
2022/09/05 07:24:10;;;;;;;8.73;8.10;;;;;;;19.75;76.34;100680.84;10541509;28;20089;-70
2022/09/05 07:29:18;;;;;;;8.43;7.82;;;;;;;20.12;74.87;100690.16;10540793;28;20068;-70
2022/09/05 07:34:28;;;;;;;9.85;9.18;;;;;;;20.31;74.03;100691.69;10543275;28;20508;-70
2022/09/05 07:39:35;;;;;;;8.10;7.60;;;;;;;20.36;74.92;100693.13;10537278;28;20127;-70
2022/09/05 07:44:40;;;;;;;8.73;8.15;;;;;;;20.45;74.76;100707.69;10492927;28;20062;-70
2022/09/05 07:49:44;;;;;;;9.60;8.77;;;;;;;20.53;74.92;100692.09;10498975;28;20051;-71
2022/09/05 07:55:30;;;;;;;8.70;8.07;;;;;;;20.93;72.40;100694.91;10482852;28;20071;-71
2022/09/05 08:00:56;;;;;;;9.23;8.52;;;;;;;21.19;70.54;100682.50;10539732;28;20044;-70
2022/09/05 08:06:03;;;;;;;10.43;9.52;;;;;;;21.24;69.81;100683.06;10522044;28;20055;-71
2022/09/05 08:11:10;;;;;;;10.30;9.57;;;;;;;21.09;70.14;100676.91;10539988;28;20044;-70
2022/09/05 08:16:26;;;;;;;9.48;8.88;;;;;;;21.28;70.75;100676.56;10541789;28;20040;-70
2022/09/05 08:21:46;;;;;;;9.40;8.82;;;;;;;21.80;68.54;100680.25;10540236;28;20139;-70
2022/09/05 08:27:11;;;;;;;10.35;9.45;;;;;;;21.79;68.53;100674.06;10539867;28;20086;-71
2022/09/05 08:32:33;;;;;;;9.80;9.23;;;;;;;21.96;68.38;100686.28;10539256;28;20073;-70
2022/09/05 08:37:37;;;;;;;11.00;10.30;;;;;;;22.27;66.98;100679.69;10541694;28;20036;-71
2022/09/05 08:42:44;;;;;;;9.60;8.85;;;;;;;22.61;66.05;100677.28;10521995;28;20078;-71
2022/09/05 08:48:11;;;;;;;9.70;9.10;;;;;;;22.78;65.49;100676.06;10538732;28;20048;-71
2022/09/05 08:53:28;;;;;;;9.75;9.10;;;;;;;23.01;64.61;100663.69;10521073;28;20048;-71
2022/09/05 08:58:58;;;;;;;10.30;9.60;;;;;;;23.32;62.87;100656.88;10541012;28;20043;-71
2022/09/05 09:04:47;;;;;;;10.32;9.63;;;;;;;23.66;62.79;100652.53;10524547;28;20100;-71
2022/09/05 09:10:24;;;;;;;9.80;9.20;;;;;;;23.75;62.60;100649.16;10522810;28;20047;-71
2022/09/05 09:15:58;;;;;;;8.65;8.05;;;;;;;23.81;61.33;100647.81;10539377;28;20032;-71
2022/09/05 09:21:22;;;;;;;8.77;8.27;;;;;;;24.13;59.36;100648.84;10536761;28;20124;-70
2022/09/05 09:26:34;;;;;;;9.13;8.43;;;;;;;24.28;58.29;100641.41;10504251;28;20044;-70
2022/09/05 09:31:48;;;;;;;9.20;8.60;;;;;;;24.76;56.73;100643.84;10504229;28;20456;-70
2022/09/05 09:37:02;;;;;;;8.95;8.35;;;;;;;24.90;57.51;100648.94;10503849;28;20098;-71
2022/09/05 09:42:44;;;;;;;8.15;7.55;;;;;;;25.14;56.53;100638.00;10505167;28;20075;-71
2022/09/05 09:48:17;;;;;;;8.30;7.78;;;;;;;26.19;54.16;100639.91;10505029;28;20040;-71
2022/09/05 09:53:36;;;;;;;8.35;7.75;;;;;;;26.17;52.82;100646.31;10503928;28;20048;-71
2022/09/05 09:59:16;;;;;;;7.13;6.72;;;;;;;26.78;50.59;100637.31;10485833;28;20046;-71
2022/09/05 10:04:32;;;;;;;7.25;6.75;;;;;;;27.00;49.48;100636.22;10504881;28;20050;-72
2022/09/05 10:10:13;;;;;;;7.35;6.75;;;;;;;26.89;49.56;100633.66;10503567;28;20068;-71
2022/09/05 10:15:38;;;;;;;6.47;6.10;;;;;;;27.24;48.74;100618.81;10501477;28;20122;-71
2022/09/05 10:21:14;;;;;;;8.00;7.47;;;;;;;27.81;48.10;100617.09;10502278;28;20098;-71
2022/09/05 10:26:51;;;;;;;5.50;5.10;;;;;;;28.10;47.17;100615.13;10485443;28;20532;-71
2022/09/05 10:32:15;;;;;;;6.03;5.60;;;;;;;27.98;46.64;100608.22;10501945;28;20037;-71
2022/09/05 10:37:42;;;;;;;5.43;5.03;;;;;;;28.01;47.33;100604.34;10501425;28;20047;-72
2022/09/05 10:42:51;;;;;;;5.10;4.80;;;;;;;28.01;46.90;100594.41;10501832;28;20052;-71
2022/09/05 10:48:16;;;;;;;5.65;5.15;;;;;;;28.45;45.47;100599.22;10500653;28;20425;-71
2022/09/05 10:54:01;;;;;;;5.88;5.38;;;;;;;28.28;45.10;100595.41;10500619;28;20048;-71
2022/09/05 10:59:03;;;;;;;4.70;4.40;;;;;;;27.85;46.16;100584.22;10500886;28;20075;-70
2022/09/05 11:04:48;;;;;;;4.45;4.13;;;;;;;27.75;46.35;100583.38;10503051;28;20039;-72
2022/09/05 11:10:14;;;;;;;4.50;4.20;;;;;;;27.55;44.91;100570.91;10503272;28;20040;-70
2022/09/05 11:15:16;;;;;;;4.00;3.70;;;;;;;27.61;45.46;100575.72;10507518;28;20048;-75
2022/09/05 11:20:38;;;;;;;3.30;3.10;;;;;;;27.99;44.31;100576.66;10474754;28;20047;-74
2022/09/05 11:25:41;;;;;;;3.50;2.45;;;;;;;27.88;42.82;100575.81;10485082;28;20040;-74
2022/09/05 11:30:52;;;;;;;4.03;2.70;;;;;;;27.10;44.89;100566.13;10487281;28;20413;-74
2022/09/05 11:36:08;;;;;;;4.05;3.35;;;;;;;26.81;45.73;100568.75;10471159;28;20037;-73
2022/09/05 11:41:37;;;;;;;2.92;2.72;;;;;;;26.43;47.53;100578.47;10474911;28;20040;-74
2022/09/05 11:46:54;;;;;;;2.40;2.20;;;;;;;26.13;46.41;100568.56;10505055;28;20037;-74
2022/09/05 11:52:43;;;;;;;3.20;2.88;;;;;;;26.17;46.69;100559.22;10484735;28;20044;-74
2022/09/05 11:58:24;;;;;;;3.80;2.60;;;;;;;26.05;47.42;100557.63;10487400;28;20040;-73
2022/09/05 12:03:46;;;;;;;2.78;2.58;;;;;;;25.98;47.52;100557.28;10482538;28;20459;-74
2022/09/05 12:09:34;;;;;;;3.40;3.20;;;;;;;26.06;47.38;100554.78;10484206;28;20052;-73
2022/09/05 12:14:39;;;;;;;3.00;2.70;;;;;;;26.10;47.39;100548.13;10464646;28;20045;-73
2022/09/05 12:20:20;;;;;;;2.60;2.40;;;;;;;25.92;47.51;100547.06;10485285;28;20059;-73
2022/09/05 12:25:36;;;;;;;6.28;3.53;;;;;;;25.92;48.58;100547.91;10483229;28;20048;-73
2022/09/05 12:31:12;;;;;;;3.00;2.80;;;;;;;25.94;48.16;100550.47;10469780;28;20059;-74
2022/09/05 12:36:46;;;;;;;4.22;3.00;;;;;;;26.39;46.38;100542.84;10482897;28;20029;-73
2022/09/05 12:42:17;;;;;;;4.00;2.80;;;;;;;26.65;46.40;100532.44;10486108;28;20131;-73
2022/09/05 12:47:29;;;;;;;2.53;2.33;;;;;;;26.77;46.30;100527.72;10465923;28;20040;-73
2022/09/05 12:52:32;;;;;;;2.72;2.53;;;;;;;26.92;47.08;100520.94;10532951;22;20046;-70
2022/09/05 12:57:40;;;;;;;3.08;2.65;;;;;;;26.73;47.87;100525.47;10575077;28;20048;-71
2022/09/05 13:03:04;;;;;;;2.80;2.60;;;;;;;26.47;48.57;100523.28;10591241;28;20100;-70
2022/09/05 13:08:36;;;;;;;3.03;2.80;;;;;;;26.87;47.93;100528.59;10591657;28;20031;-70
2022/09/05 13:14:01;;;;;;;3.47;3.28;;;;;;;26.06;48.38;100533.22;10591676;28;20089;-70
2022/09/05 13:19:32;;;;;;;3.05;2.83;;;;;;;25.60;48.69;100536.38;10591101;28;20040;-70
2022/09/05 13:24:40;;;;;;;3.28;2.97;;;;;;;25.38;50.11;100527.47;10590931;28;20416;-70
2022/09/05 13:29:52;;;;;;;3.53;3.22;;;;;;;25.28;49.47;100531.94;10590872;28;20088;-70
2022/09/05 13:35:21;;;;;;;4.93;3.92;;;;;;;25.26;51.12;100527.66;10574835;28;20435;-70
2022/09/05 13:40:46;;;;;;;4.07;3.83;;;;;;;25.30;51.52;100529.97;10562162;28;20047;-71
2022/09/05 13:46:09;;;;;;;4.85;4.53;;;;;;;25.39;51.08;100521.09;10554921;28;20040;-70
2022/09/05 13:51:29;;;;;;;4.80;4.50;;;;;;;25.34;51.54;100517.97;10556416;28;20052;-70
2022/09/05 13:56:31;;;;;;;3.88;3.58;;;;;;;25.53;52.01;100519.91;10571315;28;20093;-76
2022/09/05 14:01:52;;;;;;;4.18;3.88;;;;;;;25.51;52.03;100518.34;10590066;28;20365;-76
2022/09/05 14:07:25;;;;;;;4.05;3.75;;;;;;;25.73;50.49;100509.25;10583078;28;20036;-76
2022/09/05 14:13:03;;;;;;;4.53;4.22;;;;;;;25.55;50.88;100507.19;10558146;28;20048;-78
2022/09/05 14:18:28;;;;;;;3.97;3.60;;;;;;;25.41;51.87;100500.31;10554649;28;20040;-76
2022/09/05 14:23:42;;;;;;;3.97;3.67;;;;;;;25.73;51.55;100493.94;10558664;28;20036;-76
2022/09/05 14:29:12;;;;;;;4.03;3.72;;;;;;;25.56;50.89;100490.03;10566136;28;20036;-76
2022/09/05 14:34:53;;;;;;;4.80;3.75;;;;;;;25.52;50.11;100491.28;10568240;28;20134;-78
2022/09/05 14:40:52;;;;;;;6.82;4.18;;;;;;;25.38;50.24;100489.81;10368137;28;20052;-77
2022/09/05 14:46:20;;;;;;;3.63;3.40;;;;;;;25.11;52.13;100487.66;10377803;28;20113;-78
2022/09/05 14:51:29;;;;;;;4.05;3.58;;;;;;;25.07;52.67;100490.69;10374647;28;20423;-76
2022/09/05 14:56:46;;;;;;;4.20;3.78;;;;;;;25.01;52.90;100481.28;10359632;28;20060;-77
2022/09/05 15:02:11;;;;;;;5.05;3.65;;;;;;;24.94;52.99;100482.81;10363310;28;20149;-78
2022/09/05 15:07:39;;;;;;;4.03;3.60;;;;;;;24.65;53.54;100472.66;10404485;28;20060;-77
2022/09/05 15:12:47;;;;;;;3.90;3.60;;;;;;;24.60;53.52;100460.59;10546974;28;20052;-77
2022/09/05 15:18:08;;;;;;;3.70;3.40;;;;;;;24.57;54.38;100460.84;10572412;28;20065;-75
2022/09/05 15:23:22;;;;;;;4.13;3.83;;;;;;;24.57;54.29;100467.09;10571809;28;20043;-77
2022/09/05 15:28:43;;;;;;;7.75;3.63;;;;;;;24.56;54.12;100467.22;10578450;28;20047;-76
2022/09/05 15:33:48;;;;;;;5.10;3.67;;;;;;;24.56;54.17;100469.91;10549633;28;20089;-77
2022/09/05 15:38:49;;;;;;;3.88;3.55;;;;;;;24.70;53.49;100468.75;10588823;28;20040;-78
2022/09/05 15:44:03;;;;;;;3.50;3.20;;;;;;;24.64;54.32;100475.50;10561014;28;20043;-76
2022/09/05 15:49:24;;;;;;;3.22;2.92;;;;;;;24.57;55.07;100491.28;10594191;28;20048;-78
2022/09/05 15:54:39;;;;;;;3.78;3.47;;;;;;;24.30;55.15;100482.78;10593752;28;20082;-77
2022/09/05 15:59:50;;;;;;;4.63;3.63;;;;;;;24.09;56.04;100483.56;10581001;28;20124;-79
2022/09/05 16:05:11;;;;;;;3.67;3.38;;;;;;;24.04;57.00;100487.56;10600304;28;20054;-78
2022/09/05 16:10:34;;;;;;;3.67;3.20;;;;;;;23.85;60.35;100485.53;10591043;28;20052;-78
2022/09/05 16:15:56;;;;;;;4.13;3.78;;;;;;;23.76;60.35;100480.91;10592775;28;20036;-77
2022/09/05 16:21:18;;;;;;;4.07;3.78;;;;;;;23.55;60.75;100497.72;10572306;28;20135;-77
2022/09/05 16:26:44;;;;;;;4.70;4.35;;;;;;;23.25;62.73;100502.78;10584978;28;20089;-76
2022/09/05 16:31:52;;;;;;;5.32;4.93;;;;;;;23.01;63.71;100500.97;10573623;28;20052;-76
2022/09/05 16:37:00;;;;;;;4.78;4.47;;;;;;;22.66;66.29;100501.78;10592373;28;20044;-76
2022/09/05 16:42:32;;;;;;;5.10;4.80;;;;;;;22.63;66.12;100499.34;10592184;28;20039;-75
2022/09/05 16:48:06;;;;;;;5.03;4.63;;;;;;;22.39;65.85;100483.25;10574759;28;20101;-76
2022/09/05 16:53:21;;;;;;;5.43;5.03;;;;;;;22.44;65.91;100482.06;10593564;28;20043;-75
2022/09/05 16:58:47;;;;;;;4.70;4.30;;;;;;;22.26;66.09;100478.94;10593364;28;20036;-75
2022/09/05 17:04:02;;;;;;;4.60;4.22;;;;;;;22.06;68.19;100481.22;10593214;28;20043;-77
2022/09/05 17:09:20;;;;;;;4.53;4.18;;;;;;;21.99;69.08;100477.25;10595280;28;20098;-77
2022/09/05 17:14:24;;;;;;;5.70;5.30;;;;;;;21.97;69.71;100471.19;10592228;28;20118;-74
2022/09/05 17:19:35;;;;;;;5.80;5.45;;;;;;;21.83;70.71;100474.84;10590980;28;20135;-75
2022/09/05 17:24:51;;;;;;;5.70;5.30;;;;;;;21.74;71.59;100475.50;10590890;28;20044;-74
2022/09/05 17:30:32;;;;;;;6.25;5.85;;;;;;;21.50;73.10;100474.56;10590615;28;20047;-75
2022/09/05 17:36:07;;;;;;;6.28;5.85;;;;;;;21.39;74.18;100483.34;10571811;28;20040;-75
2022/09/05 17:41:28;;;;;;;6.40;6.00;;;;;;;21.31;73.95;100489.22;10588870;28;20043;-75
2022/09/05 17:46:33;;;;;;;6.50;6.10;;;;;;;21.23;75.34;100496.88;10589088;28;20408;-74
2022/09/05 17:51:40;;;;;;;7.05;6.65;;;;;;;21.20;75.80;100501.56;10589124;28;20119;-76
2022/09/05 17:56:52;;;;;;;6.63;6.10;;;;;;;21.09;76.21;100495.16;10589068;28;20447;-75
2022/09/05 18:02:00;;;;;;;7.60;7.13;;;;;;;20.87;76.92;100501.09;10587956;28;20054;-75
2022/09/05 18:07:24;;;;;;;6.95;6.55;;;;;;;20.89;77.90;100514.34;10588624;28;20469;-74
2022/09/05 18:12:31;;;;;;;7.07;6.68;;;;;;;20.87;77.51;100510.94;10588431;28;20035;-75
2022/09/05 18:17:53;;;;;;;7.75;7.25;;;;;;;20.77;78.56;100509.84;10572107;28;20039;-76
2022/09/05 18:23:19;;;;;;;8.50;7.90;;;;;;;20.64;79.46;100509.78;10569380;28;20048;-75
2022/09/05 18:29:34;;;;;;;8.05;7.57;;;;;;;20.56;80.12;100515.63;10572339;28;20039;-75
2022/09/05 18:35:14;;;;;;;7.63;7.18;;;;;;;20.43;81.12;100525.38;10375183;28;20100;-75
2022/09/05 18:40:43;;;;;;;8.55;7.75;;;;;;;20.35;81.54;100519.66;10374679;28;20081;-76
2022/09/05 18:45:56;;;;;;;8.07;7.50;;;;;;;20.28;81.90;100524.56;10357501;28;20723;-75
2022/09/05 18:51:06;;;;;;;8.70;8.20;;;;;;;20.27;82.27;100524.63;10374734;28;20547;-75
2022/09/05 18:56:39;;;;;;;8.98;8.38;;;;;;;20.34;81.27;100513.47;10358672;28;20495;-72
2022/09/05 19:02:17;;;;;;;8.77;8.17;;;;;;;20.31;80.70;100504.78;10374416;28;20077;-72
2022/09/05 19:07:45;;;;;;;9.00;8.50;;;;;;;20.17;82.17;100513.69;10488754;28;20047;-72
2022/09/05 19:12:55;;;;;;;7.60;7.10;;;;;;;19.98;82.40;100508.69;10585891;28;20045;-72
2022/09/05 19:17:59;;;;;;;8.52;8.02;;;;;;;19.65;84.18;100516.97;10584915;28;20096;-73
2022/09/05 19:23:26;;;;;;;8.88;8.18;;;;;;;19.64;84.70;100509.91;10585390;28;20050;-72
2022/09/05 19:28:32;;;;;;;8.68;8.07;;;;;;;19.49;84.63;100502.84;10584684;28;20040;-72
2022/09/05 19:34:14;;;;;;;7.95;7.45;;;;;;;19.36;84.52;100498.25;10584295;28;20489;-72
2022/09/05 19:39:40;;;;;;;8.38;7.88;;;;;;;19.29;85.12;100498.72;10584073;28;20063;-72
2022/09/05 19:45:05;;;;;;;8.67;8.00;;;;;;;19.29;84.90;100491.56;10584831;28;20460;-72
2022/09/05 19:50:28;;;;;;;9.40;8.80;;;;;;;19.47;83.75;100489.59;10584526;28;20430;-72
2022/09/05 19:55:35;;;;;;;8.50;8.00;;;;;;;19.26;83.79;100493.59;10565485;28;20050;-72
2022/09/05 20:00:40;;;;;;;8.98;8.38;;;;;;;19.33;84.19;100497.59;10584216;28;20385;-72
2022/09/05 20:05:49;;;;;;;8.10;7.60;;;;;;;19.23;83.35;100491.09;10582652;28;20047;-73
2022/09/05 20:10:59;;;;;;;9.60;8.80;;;;;;;19.25;82.97;100489.19;10582897;28;20036;-72
2022/09/05 20:16:01;;;;;;;8.77;8.27;;;;;;;18.93;84.91;100483.97;10563929;28;20055;-72
2022/09/05 20:21:32;;;;;;;9.68;9.13;;;;;;;18.76;85.54;100484.97;10582611;28;20043;-72
2022/09/05 20:26:35;;;;;;;9.45;8.75;;;;;;;18.98;84.18;100486.38;10581225;28;20052;-73
2022/09/05 20:31:38;;;;;;;9.27;8.77;;;;;;;18.81;84.95;100492.69;10581902;28;20044;-72
2022/09/05 20:36:45;;;;;;;9.07;8.40;;;;;;;18.69;85.52;100490.72;10564206;28;20035;-70
2022/09/05 20:42:09;;;;;;;11.85;8.43;;;;;;;18.58;86.67;100486.88;10582131;28;20039;-72
2022/09/05 20:47:43;;;;;;;8.65;8.05;;;;;;;18.52;86.94;100481.91;10567477;28;20412;-71
2022/09/05 20:53:05;;;;;;;9.23;8.52;;;;;;;18.69;86.74;100472.97;10549349;28;20493;-73
2022/09/05 20:58:29;;;;;;;9.82;9.25;;;;;;;18.60;87.22;100481.47;10582312;28;20097;-72
2022/09/05 21:03:38;;;;;;;9.20;8.57;;;;;;;18.49;87.55;100475.91;10581860;28;20067;-71
2022/09/05 21:08:40;;;;;;;9.75;9.15;;;;;;;18.33;88.99;100479.44;10563272;28;20489;-71
2022/09/05 21:13:48;;;;;;;9.75;9.25;;;;;;;18.40;89.34;100477.28;10564793;28;20046;-71
2022/09/05 21:18:53;;;;;;;9.82;9.13;;;;;;;18.42;89.18;100480.72;10590073;28;20469;-71
2022/09/05 21:24:10;;;;;;;9.30;8.80;;;;;;;18.36;89.04;100478.41;10590293;28;20051;-71
2022/09/05 21:29:26;;;;;;;10.27;9.77;;;;;;;18.48;89.02;100472.38;10589476;28;20064;-72
2022/09/05 21:34:39;;;;;;;9.50;9.00;;;;;;;18.43;89.79;100478.91;10588760;28;20047;-72
2022/09/05 21:39:51;;;;;;;9.07;8.48;;;;;;;18.19;90.95;100471.38;10589027;28;20114;-71
2022/09/05 21:45:00;;;;;;;11.02;10.38;;;;;;;18.24;91.27;100468.44;10589298;28;20043;-71
2022/09/05 21:50:27;;;;;;;10.55;9.95;;;;;;;18.10;91.79;100471.88;10570519;28;20035;-71
2022/09/05 21:55:34;;;;;;;13.43;10.85;;;;;;;18.10;92.69;100464.75;10587761;28;20097;-72
2022/09/05 22:00:55;;;;;;;10.88;10.15;;;;;;;17.98;93.21;100457.50;10588826;28;20047;-73
2022/09/05 22:05:57;;;;;;;10.68;10.07;;;;;;;17.88;94.21;100466.91;10587634;28;20476;-73
2022/09/05 22:11:11;;;;;;;11.98;11.23;;;;;;;17.81;95.33;100458.41;10587533;28;20040;-72
2022/09/05 22:16:14;;;;;;;10.27;9.75;;;;;;;17.72;95.95;100461.53;10586818;28;20035;-72
2022/09/05 22:21:23;;;;;;;12.18;11.38;;;;;;;17.95;95.55;100452.31;10587270;28;20043;-72
2022/09/05 22:26:44;;;;;;;12.15;11.35;;;;;;;17.79;96.20;100454.97;10586690;28;20065;-72
2022/09/05 22:32:06;;;;;;;12.55;11.63;;;;;;;17.78;97.61;100449.75;10567979;28;20043;-72
2022/09/05 22:37:08;;;;;;;13.15;12.15;;;;;;;17.85;96.23;100445.81;10586037;28;20039;-71
2022/09/05 22:42:10;;;;;;;12.13;11.43;;;;;;;17.88;96.49;100445.63;10585822;28;20054;-73
2022/09/05 22:47:11;;;;;;;12.95;12.07;;;;;;;17.72;97.40;100444.75;10585414;28;20039;-72
2022/09/05 22:52:13;;;;;;;11.25;10.55;;;;;;;17.56;98.95;100444.69;10585111;28;20043;-72
2022/09/05 22:57:15;;;;;;;12.32;11.32;;;;;;;17.61;98.07;100434.66;10584931;28;20469;-72
2022/09/05 23:02:16;;;;;;;13.23;12.10;;;;;;;17.65;98.24;100434.41;10584842;28;20408;-72
2022/09/05 23:07:19;;;;;;;12.10;11.40;;;;;;;17.52;98.89;100432.50;10585153;28;20042;-72
2022/09/05 23:12:21;;;;;;;12.10;11.27;;;;;;;17.57;97.68;100422.50;10584566;28;20047;-72
2022/09/05 23:17:22;;;;;;;12.73;12.02;;;;;;;17.56;98.24;100421.63;10566031;28;20055;-72
2022/09/05 23:22:24;;;;;;;12.35;11.57;;;;;;;17.35;98.72;100417.47;10584327;28;20044;-72
2022/09/05 23:27:25;;;;;;;12.82;12.02;;;;;;;17.25;99.60;100419.78;10584319;28;20035;-72
2022/09/05 23:32:27;;;;;;;11.80;11.00;;;;;;;17.25;99.89;100405.63;10566616;28;20047;-71
2022/09/05 23:37:29;;;;;;;13.40;12.50;;;;;;;17.27;99.93;100396.66;10583125;28;20048;-71
2022/09/05 23:42:30;;;;;;;12.57;11.85;;;;;;;17.31;100.00;100398.22;10584306;28;20051;-71
2022/09/05 23:47:34;;;;;;;13.73;12.52;;;;;;;17.11;100.00;100391.28;10565904;28;20600;-72
2022/09/05 23:52:41;;;;;;;13.85;13.05;;;;;;;17.12;100.00;100387.69;10584321;28;20035;-72
2022/09/05 23:57:43;;;;;;;12.95;12.25;;;;;;;16.98;100.00;100387.56;10584170;28;20035;-72
